Time;durP1;ratioP1;P1;durP2;ratioP2;P2;SDS_P1;SDS_P2;PMS_P1;PMS_P2;Temp;Humidity;BMP_temperature;BMP_pressure;BME280_temperature;BME280_humidity;BME280_pressure;Samples;Min_cycle;Max_cycle;Signal;HPM_P1;HPM_P2
2023/10/25 00:00:33;;;;;;;1.17;1.13;;;;;;;;;;5045393;28;20044;-81
2023/10/25 00:02:58;;;;;;;4.53;1.50;;;;;;;;;;5031277;28;20032;-80
2023/10/25 00:05:23;;;;;;;1.40;1.30;;;;;;;;;;5045861;28;20048;-80
2023/10/25 00:07:48;;;;;;;1.33;1.33;;;;;;;;;;5043601;28;20485;-80
2023/10/25 00:10:14;;;;;;;1.40;1.35;;;;;;;;;;5046489;28;20029;-81
2023/10/25 00:12:39;;;;;;;3.70;1.77;;;;;;;;;;5041067;28;20032;-80
2023/10/25 00:15:05;;;;;;;2.50;1.60;;;;;;;;;;5048288;28;20013;-81
2023/10/25 00:17:31;;;;;;;1.90;1.80;;;;;;;;;;5048959;28;20056;-80
2023/10/25 00:19:56;;;;;;;1.40;1.30;;;;;;;;;;5032435;28;20057;-81
2023/10/25 00:22:21;;;;;;;2.05;1.40;;;;;;;;;;5026032;28;20079;-79
2023/10/25 00:24:47;;;;;;;1.60;1.50;;;;;;;;;;5038658;28;20493;-81
2023/10/25 00:27:12;;;;;;;1.60;1.50;;;;;;;;;;5042257;28;20028;-80
2023/10/25 00:29:37;;;;;;;1.95;1.27;;;;;;;;;;5042973;28;20464;-81
2023/10/25 00:32:05;;;;;;;1.50;1.40;;;;;;;;;;5039139;28;20394;-81
2023/10/25 00:34:30;;;;;;;1.77;1.35;;;;;;;;;;5040451;28;20034;-81
2023/10/25 00:36:55;;;;;;;1.48;1.35;;;;;;;;;;5035799;28;20036;-80
2023/10/25 00:39:21;;;;;;;3.45;1.83;;;;;;;;;;5041737;28;20017;-80
2023/10/25 00:41:46;;;;;;;1.80;1.70;;;;;;;;;;5039775;28;20025;-80
2023/10/25 00:44:11;;;;;;;2.15;2.03;;;;;;;;;;5042249;28;20029;-80
2023/10/25 00:46:37;;;;;;;2.22;1.80;;;;;;;;;;5041406;28;20044;-80
2023/10/25 00:49:04;;;;;;;2.40;1.65;;;;;;;;;;5038817;28;20124;-80
2023/10/25 00:51:30;;;;;;;1.92;1.80;;;;;;;;;;5034203;28;20557;-80
2023/10/25 00:54:00;;;;;;;3.08;1.95;;;;;;;;;;5037796;28;20111;-79
2023/10/25 00:56:27;;;;;;;2.28;1.80;;;;;;;;;;5047400;28;20029;-80
2023/10/25 00:58:54;;;;;;;2.05;1.60;;;;;;;;;;5039201;28;20447;-80
2023/10/25 01:01:22;;;;;;;2.10;1.80;;;;;;;;;;5030907;28;20033;-80
2023/10/25 01:03:49;;;;;;;2.97;2.10;;;;;;;;;;5035133;28;20397;-80
2023/10/25 01:06:15;;;;;;;2.13;1.98;;;;;;;;;;5044280;28;20032;-80
2023/10/25 01:08:41;;;;;;;3.10;2.42;;;;;;;;;;5045453;28;20064;-79
2023/10/25 01:11:06;;;;;;;2.47;2.28;;;;;;;;;;5043023;28;20413;-80
2023/10/25 01:13:32;;;;;;;3.55;2.28;;;;;;;;;;5040401;28;20400;-79
2023/10/25 01:15:57;;;;;;;2.60;2.15;;;;;;;;;;5040807;28;20036;-79
2023/10/25 01:18:23;;;;;;;2.60;2.40;;;;;;;;;;5050129;28;20041;-79
2023/10/25 01:20:48;;;;;;;4.80;3.15;;;;;;;;;;5050043;28;20025;-79
2023/10/25 01:23:14;;;;;;;2.65;2.45;;;;;;;;;;5050529;28;20040;-80
2023/10/25 01:25:41;;;;;;;3.10;2.70;;;;;;;;;;5043920;28;20667;-80
2023/10/25 01:28:06;;;;;;;3.20;2.63;;;;;;;;;;5043715;28;20025;-79
2023/10/25 01:30:32;;;;;;;3.42;2.53;;;;;;;;;;5044268;28;20025;-80
2023/10/25 01:32:58;;;;;;;4.38;2.45;;;;;;;;;;5048009;28;20024;-80
2023/10/25 01:35:24;;;;;;;3.70;2.78;;;;;;;;;;5045292;28;20417;-80
2023/10/25 01:37:50;;;;;;;2.92;2.72;;;;;;;;;;5041500;28;20046;-80
2023/10/25 01:40:15;;;;;;;8.63;2.60;;;;;;;;;;5042827;28;20032;-79
2023/10/25 01:42:41;;;;;;;2.80;2.60;;;;;;;;;;5041181;28;20119;-80
2023/10/25 01:45:06;;;;;;;2.30;1.98;;;;;;;;;;5036116;28;20469;-80
2023/10/25 01:47:32;;;;;;;1.85;1.75;;;;;;;;;;5043555;28;20118;-80
2023/10/25 01:49:57;;;;;;;2.10;2.00;;;;;;;;;;5044715;28;20037;-80
2023/10/25 01:52:22;;;;;;;2.20;1.98;;;;;;;;;;5039486;28;20034;-80
2023/10/25 01:54:50;;;;;;;3.70;1.92;;;;;;;;;;5042222;28;20033;-79
2023/10/25 01:57:16;;;;;;;14.60;2.72;;;;;;;;;;5045939;28;20036;-78
2023/10/25 01:59:42;;;;;;;2.45;2.03;;;;;;;;;;5043116;28;20021;-79
2023/10/25 02:02:07;;;;;;;1.83;1.73;;;;;;;;;;5039614;28;20509;-80
2023/10/25 02:07:00;;;;;;;1.67;1.58;;;;;;;;;;5009803;28;20038;-84
2023/10/25 02:09:25;;;;;;;6.97;1.58;;;;;;;;;;5006213;28;20027;-84
2023/10/25 02:11:50;;;;;;;2.67;1.80;;;;;;;;;;5008061;28;20026;-84
2023/10/25 02:14:16;;;;;;;2.13;2.03;;;;;;;;;;5011496;28;20064;-84
2023/10/25 02:16:42;;;;;;;1.83;1.73;;;;;;;;;;5011570;28;20054;-83
2023/10/25 02:19:07;;;;;;;1.65;1.55;;;;;;;;;;5005065;28;20251;-83
2023/10/25 02:21:35;;;;;;;2.42;1.90;;;;;;;;;;5004197;28;20537;-84
2023/10/25 02:24:05;;;;;;;1.88;1.75;;;;;;;;;;5003886;28;20030;-84
2023/10/25 02:26:30;;;;;;;1.92;1.83;;;;;;;;;;5006876;28;20058;-84
2023/10/25 02:28:56;;;;;;;1.95;1.85;;;;;;;;;;5027459;28;20560;-85
2023/10/25 02:31:22;;;;;;;2.22;1.85;;;;;;;;;;5007018;28;20034;-84
2023/10/25 02:33:47;;;;;;;4.85;2.15;;;;;;;;;;5010692;28;20034;-84
2023/10/25 02:36:13;;;;;;;3.00;1.98;;;;;;;;;;5008210;28;20037;-84
2023/10/25 02:38:38;;;;;;;2.13;2.03;;;;;;;;;;5013461;28;20076;-83
2023/10/25 02:41:03;;;;;;;1.80;1.70;;;;;;;;;;5010863;28;20069;-84
2023/10/25 02:43:29;;;;;;;2.45;2.00;;;;;;;;;;5015647;28;20041;-85
2023/10/25 02:46:02;;;;;;;1.90;1.80;;;;;;;;;;5016033;28;20034;-86
2023/10/25 02:48:28;;;;;;;1.50;1.40;;;;;;;;;;5017322;28;20041;-84
2023/10/25 02:50:53;;;;;;;1.48;1.45;;;;;;;;;;5007387;28;20042;-85
2023/10/25 02:53:18;;;;;;;4.60;1.58;;;;;;;;;;5007239;28;20026;-86
2023/10/25 02:55:47;;;;;;;2.10;1.90;;;;;;;;;;5004157;28;20465;-84
2023/10/25 02:58:12;;;;;;;1.80;1.70;;;;;;;;;;5007441;28;20394;-84
2023/10/25 03:00:41;;;;;;;2.90;2.05;;;;;;;;;;5012534;28;20026;-83
2023/10/25 03:03:06;;;;;;;2.00;1.90;;;;;;;;;;5012270;28;20105;-83
2023/10/25 03:05:31;;;;;;;2.60;2.15;;;;;;;;;;5012535;28;20054;-83
2023/10/25 03:07:57;;;;;;;2.17;2.08;;;;;;;;;;5011716;28;20052;-83
2023/10/25 03:10:22;;;;;;;2.20;2.00;;;;;;;;;;5007929;28;20054;-85
2023/10/25 03:12:48;;;;;;;7.65;2.60;;;;;;;;;;5013041;28;20034;-83
2023/10/25 03:15:14;;;;;;;28.42;3.40;;;;;;;;;;5015516;28;20034;-83
2023/10/25 03:17:39;;;;;;;2.30;2.15;;;;;;;;;;5018922;28;20057;-83
2023/10/25 03:20:05;;;;;;;4.80;2.17;;;;;;;;;;5020220;28;20502;-84
2023/10/25 03:22:31;;;;;;;2.15;2.00;;;;;;;;;;5020564;28;20060;-83
2023/10/25 03:24:57;;;;;;;2.22;2.03;;;;;;;;;;5023498;28;20117;-82
2023/10/25 03:27:22;;;;;;;2.97;2.13;;;;;;;;;;5021251;28;20049;-82
2023/10/25 03:29:48;;;;;;;5.03;2.00;;;;;;;;;;5021650;28;20025;-83
2023/10/25 03:32:13;;;;;;;2.20;2.10;;;;;;;;;;5021064;28;20109;-83
2023/10/25 03:34:38;;;;;;;2.92;2.38;;;;;;;;;;5021130;28;20109;-82
2023/10/25 03:37:03;;;;;;;2.72;2.47;;;;;;;;;;5020713;28;20030;-83
2023/10/25 03:39:30;;;;;;;2.47;2.30;;;;;;;;;;5021498;28;20038;-82
2023/10/25 03:41:56;;;;;;;2.92;2.72;;;;;;;;;;5010173;28;20469;-82
2023/10/25 03:44:21;;;;;;;3.67;2.88;;;;;;;;;;5001500;28;20030;-80
2023/10/25 03:46:47;;;;;;;4.25;2.60;;;;;;;;;;4997543;28;20034;-82
2023/10/25 03:49:12;;;;;;;3.83;3.08;;;;;;;;;;4999587;28;20061;-83
2023/10/25 03:51:37;;;;;;;20.92;15.00;;;;;;;;;;4998699;28;20517;-82
2023/10/25 03:54:03;;;;;;;4.95;4.07;;;;;;;;;;5007904;28;20110;-83
2023/10/25 03:56:28;;;;;;;6.25;4.57;;;;;;;;;;5018188;28;20018;-83
2023/10/25 03:58:53;;;;;;;4.00;3.20;;;;;;;;;;5001483;28;20030;-83
2023/10/25 04:01:19;;;;;;;7.18;3.88;;;;;;;;;;5000840;28;20030;-83
2023/10/25 04:03:44;;;;;;;5.10;3.63;;;;;;;;;;5001347;28;20042;-81
2023/10/25 04:06:09;;;;;;;4.40;3.70;;;;;;;;;;5000720;28;20030;-83
2023/10/25 04:08:35;;;;;;;61.97;5.88;;;;;;;;;;5001327;28;20445;-84
2023/10/25 04:11:01;;;;;;;6.90;4.57;;;;;;;;;;5005203;28;20027;-83
2023/10/25 04:13:27;;;;;;;7.20;4.05;;;;;;;;;;5003736;28;20085;-84
2023/10/25 04:16:02;;;;;;;7.43;4.43;;;;;;;;;;5003443;28;20046;-84
2023/10/25 04:18:29;;;;;;;7.15;5.22;;;;;;;;;;5009870;28;20247;-85
2023/10/25 04:20:56;;;;;;;10.48;4.18;;;;;;;;;;5011712;28;20061;-84
2023/10/25 04:23:28;;;;;;;6.45;3.85;;;;;;;;;;5006614;28;20089;-81
2023/10/25 04:26:06;;;;;;;2.92;2.67;;;;;;;;;;5010369;28;20034;-82
2023/10/25 04:28:31;;;;;;;4.40;3.53;;;;;;;;;;5011293;28;20053;-81
2023/10/25 04:30:56;;;;;;;4.65;3.53;;;;;;;;;;5008201;28;20062;-81
2023/10/25 04:33:21;;;;;;;19.00;4.30;;;;;;;;;;5011144;28;20038;-81
2023/10/25 04:35:47;;;;;;;6.07;3.05;;;;;;;;;;5009545;28;20522;-83
2023/10/25 04:38:12;;;;;;;4.97;3.10;;;;;;;;;;5017855;28;20397;-86
2023/10/25 04:40:37;;;;;;;3.35;2.80;;;;;;;;;;5009294;28;20450;-84
2023/10/25 04:43:03;;;;;;;3.50;3.08;;;;;;;;;;5000010;28;20530;-85
2023/10/25 04:45:29;;;;;;;3.63;2.72;;;;;;;;;;5001518;28;20061;-86
2023/10/25 04:47:54;;;;;;;4.18;2.53;;;;;;;;;;5004932;28;20113;-86
2023/10/25 04:50:24;;;;;;;2.53;2.30;;;;;;;;;;5010006;28;20125;-85
2023/10/25 04:52:49;;;;;;;2.35;2.15;;;;;;;;;;5016893;28;20088;-86
2023/10/25 04:55:15;;;;;;;16.17;3.20;;;;;;;;;;5002589;28;20510;-85
2023/10/25 04:57:40;;;;;;;2.60;2.40;;;;;;;;;;5005545;28;20041;-84
2023/10/25 05:00:09;;;;;;;3.05;2.75;;;;;;;;;;5014164;28;20407;-87
2023/10/25 05:02:38;;;;;;;2.17;2.05;;;;;;;;;;5003379;28;20033;-87
2023/10/25 05:05:08;;;;;;;2.10;2.00;;;;;;;;;;5005695;28;20034;-86
2023/10/25 05:07:39;;;;;;;2.90;2.10;;;;;;;;;;5005825;28;20120;-85
2023/10/25 05:10:06;;;;;;;2.40;2.25;;;;;;;;;;5004389;28;20038;-87
2023/10/25 05:12:38;;;;;;;3.80;2.95;;;;;;;;;;5001750;28;20037;-86
2023/10/25 05:15:04;;;;;;;4.55;3.00;;;;;;;;;;5010567;28;20041;-85
2023/10/25 05:17:30;;;;;;;3.00;2.38;;;;;;;;;;5001607;28;20501;-86
2023/10/25 05:19:55;;;;;;;4.55;2.70;;;;;;;;;;5003213;28;20034;-86
2023/10/25 05:22:27;;;;;;;4.07;3.63;;;;;;;;;;5011806;28;20030;-86
2023/10/25 05:24:53;;;;;;;2.92;2.70;;;;;;;;;;4999907;28;20030;-86
2023/10/25 05:27:18;;;;;;;4.25;2.00;;;;;;;;;;5002700;28;20084;-85
2023/10/25 05:29:44;;;;;;;4.20;2.50;;;;;;;;;;5000012;28;20478;-82
2023/10/25 05:32:14;;;;;;;2.78;2.40;;;;;;;;;;5005719;28;20029;-84
2023/10/25 05:34:40;;;;;;;3.22;2.90;;;;;;;;;;5010605;28;20038;-86
2023/10/25 05:37:05;;;;;;;2.33;2.13;;;;;;;;;;5003396;28;20134;-86
2023/10/25 05:39:31;;;;;;;2.55;2.33;;;;;;;;;;5005432;28;20034;-84
2023/10/25 05:42:03;;;;;;;1.98;1.85;;;;;;;;;;5019232;28;20036;-85
2023/10/25 05:44:29;;;;;;;2.38;2.17;;;;;;;;;;5013507;28;20038;-86
2023/10/25 05:46:54;;;;;;;2.55;2.35;;;;;;;;;;5011656;28;20069;-84
2023/10/25 05:49:20;;;;;;;2.97;2.67;;;;;;;;;;5010886;28;20046;-84
2023/10/25 05:51:45;;;;;;;2.90;2.58;;;;;;;;;;5001512;28;20034;-85
2023/10/25 05:54:11;;;;;;;42.78;3.35;;;;;;;;;;5012917;28;20025;-87
2023/10/25 05:56:37;;;;;;;2.47;2.28;;;;;;;;;;5001812;28;20026;-87
2023/10/25 05:59:02;;;;;;;3.05;2.35;;;;;;;;;;5008677;28;20030;-85
2023/10/25 06:01:36;;;;;;;3.10;2.30;;;;;;;;;;5009810;28;20118;-85
2023/10/25 06:04:03;;;;;;;;;;;;;;;;;;5009931;28;20030;-84
2023/10/25 06:06:30;;;;;;;82.47;4.05;;;;;;;;;;5006343;28;19918;-86
2023/10/25 06:08:55;;;;;;;113.03;4.40;;;;;;;;;;5012700;28;20029;-85
2023/10/25 06:11:21;;;;;;;35.03;2.17;;;;;;;;;;5015562;28;20038;-85
2023/10/25 06:13:46;;;;;;;5.38;1.83;;;;;;;;;;5021443;28;20441;-85
2023/10/25 06:16:13;;;;;;;64.03;3.25;;;;;;;;;;5004928;28;20033;-86
2023/10/25 06:18:38;;;;;;;18.60;2.00;;;;;;;;;;5004279;28;20533;-86
2023/10/25 06:21:04;;;;;;;1.55;1.30;;;;;;;;;;5004068;28;20080;-85
2023/10/25 06:23:29;;;;;;;3.30;1.90;;;;;;;;;;5007846;28;20057;-85
2023/10/25 06:25:54;;;;;;;2.28;2.08;;;;;;;;;;5020549;28;20061;-85
2023/10/25 06:28:20;;;;;;;1.98;1.55;;;;;;;;;;5008088;28;20034;-86
2023/10/25 06:30:45;;;;;;;4.85;1.95;;;;;;;;;;5017507;28;20113;-86
2023/10/25 06:33:11;;;;;;;300.75;13.68;;;;;;;;;;5002627;28;20023;-86
2023/10/25 06:35:36;;;;;;;1.80;1.70;;;;;;;;;;5004121;28;20090;-86
2023/10/25 06:38:02;;;;;;;2.05;1.58;;;;;;;;;;5001812;28;20030;-87
2023/10/25 06:40:27;;;;;;;1999.90;107.72;;;;;;;;;;5003348;28;20659;-86
2023/10/25 06:42:53;;;;;;;1.30;1.30;;;;;;;;;;5018501;28;20030;-85
2023/10/25 06:45:18;;;;;;;1.50;1.40;;;;;;;;;;5003158;28;20022;-86
2023/10/25 06:47:44;;;;;;;1.40;1.30;;;;;;;;;;5018934;28;20479;-86
2023/10/25 06:50:11;;;;;;;1.42;1.30;;;;;;;;;;5002926;28;20031;-86
2023/10/25 06:52:37;;;;;;;46.03;3.30;;;;;;;;;;5002341;28;20034;-87
2023/10/25 06:55:03;;;;;;;2.30;1.67;;;;;;;;;;5013658;28;20042;-84
2023/10/25 06:57:28;;;;;;;15.50;1.70;;;;;;;;;;5022571;28;20104;-87
2023/10/25 06:59:54;;;;;;;1.25;1.25;;;;;;;;;;5007833;28;20486;-86
2023/10/25 07:02:29;;;;;;;1.77;1.67;;;;;;;;;;5012324;28;20561;-86
2023/10/25 07:05:06;;;;;;;1.77;1.40;;;;;;;;;;5001294;28;20057;-86
2023/10/25 07:07:33;;;;;;;1.58;1.48;;;;;;;;;;5007117;28;20097;-86
2023/10/25 07:09:59;;;;;;;2.45;1.40;;;;;;;;;;5007070;28;20041;-86
2023/10/25 07:12:24;;;;;;;1.10;1.10;;;;;;;;;;5008329;28;20049;-85
2023/10/25 07:14:49;;;;;;;4.93;1.30;;;;;;;;;;5012067;28;20031;-86
2023/10/25 07:17:15;;;;;;;0.90;0.90;;;;;;;;;;5010350;28;20038;-86
2023/10/25 07:19:43;;;;;;;0.73;0.73;;;;;;;;;;5005975;28;20117;-83
2023/10/25 07:22:09;;;;;;;0.80;0.80;;;;;;;;;;5005064;28;20390;-86
2023/10/25 07:24:35;;;;;;;0.80;0.80;;;;;;;;;;5003496;28;20027;-86
2023/10/25 07:27:00;;;;;;;0.88;0.80;;;;;;;;;;5005608;28;20054;-85
2023/10/25 07:29:25;;;;;;;0.90;0.90;;;;;;;;;;5005124;28;20042;-86
2023/10/25 07:31:51;;;;;;;0.90;0.90;;;;;;;;;;5005290;28;20031;-86
2023/10/25 07:34:17;;;;;;;0.75;0.75;;;;;;;;;;5004702;28;20027;-85
2023/10/25 07:36:43;;;;;;;0.70;0.70;;;;;;;;;;5003673;28;20137;-86
2023/10/25 07:39:08;;;;;;;0.55;0.55;;;;;;;;;;5007654;28;20022;-87
2023/10/25 07:41:33;;;;;;;0.60;0.60;;;;;;;;;;5005643;28;20030;-84
2023/10/25 07:44:00;;;;;;;0.70;0.70;;;;;;;;;;5023016;28;20034;-87
2023/10/25 07:46:26;;;;;;;0.60;0.60;;;;;;;;;;5001671;28;20038;-87
2023/10/25 07:48:51;;;;;;;0.55;0.55;;;;;;;;;;5011603;28;20041;-86
2023/10/25 07:51:16;;;;;;;0.60;0.60;;;;;;;;;;5007806;28;20053;-86
2023/10/25 07:53:41;;;;;;;0.50;0.50;;;;;;;;;;5003968;28;20037;-83
2023/10/25 07:56:07;;;;;;;0.52;0.52;;;;;;;;;;5018095;28;20034;-85
2023/10/25 07:58:32;;;;;;;1.17;0.60;;;;;;;;;;5004076;28;20742;-82
2023/10/25 08:00:57;;;;;;;0.60;0.60;;;;;;;;;;4999301;28;20034;-83
2023/10/25 08:03:24;;;;;;;0.52;0.40;;;;;;;;;;5019345;28;20057;-82
2023/10/25 08:05:49;;;;;;;0.90;0.68;;;;;;;;;;5006867;28;20061;-82
2023/10/25 08:08:15;;;;;;;0.40;0.40;;;;;;;;;;5010741;28;20062;-80
2023/10/25 08:10:40;;;;;;;0.63;0.52;;;;;;;;;;5005093;28;20039;-78
2023/10/25 08:13:05;;;;;;;0.50;0.50;;;;;;;;;;5008289;28;20038;-81
2023/10/25 08:15:31;;;;;;;0.30;0.30;;;;;;;;;;5005169;28;20038;-80
2023/10/25 08:17:56;;;;;;;2.20;0.50;;;;;;;;;;5006025;28;20030;-82
2023/10/25 08:20:21;;;;;;;0.88;0.60;;;;;;;;;;5004857;28;20078;-80
2023/10/25 08:22:47;;;;;;;0.50;0.50;;;;;;;;;;5002490;28;20034;-79
2023/10/25 08:25:12;;;;;;;3.90;0.38;;;;;;;;;;5003036;28;20035;-80
2023/10/25 08:27:37;;;;;;;0.32;0.32;;;;;;;;;;5003755;28;20034;-80
2023/10/25 08:30:03;;;;;;;1.10;0.50;;;;;;;;;;5004818;28;20026;-80
2023/10/25 08:32:29;;;;;;;0.28;0.28;;;;;;;;;;5006767;28;20034;-80
2023/10/25 08:34:54;;;;;;;0.65;0.50;;;;;;;;;;5010694;28;20096;-81
2023/10/25 08:37:19;;;;;;;0.38;0.38;;;;;;;;;;5017788;28;20035;-81
2023/10/25 08:39:45;;;;;;;0.40;0.40;;;;;;;;;;5024894;28;20045;-81
2023/10/25 08:42:14;;;;;;;0.65;0.57;;;;;;;;;;5014349;28;20030;-81
2023/10/25 08:44:43;;;;;;;0.60;0.60;;;;;;;;;;5003286;28;20383;-81
2023/10/25 08:47:11;;;;;;;0.38;0.38;;;;;;;;;;5012766;28;20702;-79
2023/10/25 08:49:37;;;;;;;0.40;0.40;;;;;;;;;;5003952;28;20045;-81
2023/10/25 08:52:03;;;;;;;0.55;0.40;;;;;;;;;;5002304;28;20522;-81
2023/10/25 08:54:29;;;;;;;0.60;0.60;;;;;;;;;;5003260;28;20064;-81
2023/10/25 08:56:55;;;;;;;0.57;0.50;;;;;;;;;;5003509;28;20026;-81
2023/10/25 08:59:20;;;;;;;1.77;0.45;;;;;;;;;;5018194;28;20042;-82
2023/10/25 09:01:46;;;;;;;0.47;0.43;;;;;;;;;;5001569;28;20031;-81
2023/10/25 09:04:11;;;;;;;0.50;0.50;;;;;;;;;;5010711;28;20046;-80
2023/10/25 09:06:36;;;;;;;0.80;0.80;;;;;;;;;;5002053;28;20109;-81
2023/10/25 09:09:05;;;;;;;1.00;1.00;;;;;;;;;;5007656;28;20018;-81
2023/10/25 09:11:44;;;;;;;1.00;1.00;;;;;;;;;;5013747;28;20042;-81
2023/10/25 09:14:12;;;;;;;1.02;1.02;;;;;;;;;;4983990;28;20085;-81
2023/10/25 09:16:42;;;;;;;3.08;0.85;;;;;;;;;;5015903;28;20030;-80
2023/10/25 09:19:08;;;;;;;0.70;0.70;;;;;;;;;;5004700;28;20572;-81
2023/10/25 09:21:33;;;;;;;0.70;0.70;;;;;;;;;;5007351;28;20034;-81
2023/10/25 09:24:02;;;;;;;0.60;0.60;;;;;;;;;;5001152;28;20386;-81
2023/10/25 09:26:33;;;;;;;0.60;0.60;;;;;;;;;;4998469;28;20073;-81
2023/10/25 09:28:59;;;;;;;0.70;0.70;;;;;;;;;;5027203;28;20133;-81
2023/10/25 09:31:27;;;;;;;0.82;0.82;;;;;;;;;;5004250;28;20509;-81
2023/10/25 09:33:53;;;;;;;0.75;0.75;;;;;;;;;;5010575;28;20145;-79
2023/10/25 09:36:19;;;;;;;0.82;0.82;;;;;;;;;;5007049;28;20037;-83
2023/10/25 09:38:44;;;;;;;2.60;0.80;;;;;;;;;;5006960;28;20026;-81
2023/10/25 09:41:14;;;;;;;1.45;0.73;;;;;;;;;;5000302;28;20117;-83
2023/10/25 09:43:44;;;;;;;0.70;0.70;;;;;;;;;;5005676;28;20030;-83
2023/10/25 09:46:14;;;;;;;0.63;0.63;;;;;;;;;;5001527;28;20034;-82
2023/10/25 09:48:41;;;;;;;0.60;0.60;;;;;;;;;;4999630;28;20085;-81
2023/10/25 09:51:12;;;;;;;1.98;0.88;;;;;;;;;;5005723;28;20076;-80
2023/10/25 09:53:53;;;;;;;0.80;0.65;;;;;;;;;;5004338;28;20037;-80
2023/10/25 09:56:19;;;;;;;0.80;0.80;;;;;;;;;;5001496;28;20573;-81
2023/10/25 09:58:45;;;;;;;0.82;0.70;;;;;;;;;;5006249;28;20026;-82
2023/10/25 10:01:10;;;;;;;0.80;0.80;;;;;;;;;;5020016;28;20455;-80
2023/10/25 10:03:35;;;;;;;0.80;0.80;;;;;;;;;;5002729;28;20022;-81
2023/10/25 10:06:08;;;;;;;1.00;1.00;;;;;;;;;;5003984;28;20405;-81
2023/10/25 10:09:24;;;;;;;0.90;0.90;;;;;;;;;;5009211;28;20080;-81
2023/10/25 10:11:56;;;;;;;1.20;1.10;;;;;;;;;;4979473;28;20046;-81
2023/10/25 10:14:37;;;;;;;1.25;1.15;;;;;;;;;;4997406;28;20434;-82
2023/10/25 10:17:07;;;;;;;1.30;1.20;;;;;;;;;;5003090;28;20042;-81
2023/10/25 10:19:36;;;;;;;3.13;1.25;;;;;;;;;;5020427;28;20061;-80
2023/10/25 10:22:13;;;;;;;2.58;1.20;;;;;;;;;;5012013;28;20034;-81
2023/10/25 10:24:53;;;;;;;4.60;1.10;;;;;;;;;;5016437;28;20038;-81
2023/10/25 10:27:27;;;;;;;0.60;0.60;;;;;;;;;;5000515;28;20061;-81
2023/10/25 10:29:53;;;;;;;0.57;0.57;;;;;;;;;;4999773;28;20445;-82
2023/10/25 10:32:18;;;;;;;0.65;0.65;;;;;;;;;;5002698;28;20545;-82
2023/10/25 10:34:57;;;;;;;0.50;0.50;;;;;;;;;;5010248;28;20098;-81
2023/10/25 10:37:24;;;;;;;0.60;0.60;;;;;;;;;;5020264;28;20038;-82
2023/10/25 10:39:56;;;;;;;0.70;0.70;;;;;;;;;;5018091;28;20037;-78
2023/10/25 10:42:30;;;;;;;0.60;0.60;;;;;;;;;;5002018;28;20026;-81
2023/10/25 10:45:10;;;;;;;0.35;0.35;;;;;;;;;;4998512;28;20025;-79
2023/10/25 10:47:44;;;;;;;0.40;0.40;;;;;;;;;;5014671;28;20061;-81
2023/10/25 10:50:13;;;;;;;1.02;0.50;;;;;;;;;;5019150;28;20038;-82
2023/10/25 10:52:50;;;;;;;1.75;0.40;;;;;;;;;;5003372;28;20039;-78
2023/10/25 10:55:17;;;;;;;0.40;0.40;;;;;;;;;;4994928;28;20493;-83
2023/10/25 10:57:43;;;;;;;0.47;0.47;;;;;;;;;;5003210;28;20614;-82
2023/10/25 11:00:10;;;;;;;1.95;0.47;;;;;;;;;;5020033;28;20034;-81
2023/10/25 11:02:37;;;;;;;0.30;0.30;;;;;;;;;;5017602;28;20050;-81
2023/10/25 11:05:04;;;;;;;0.40;0.40;;;;;;;;;;5003461;28;20577;-81
2023/10/25 11:07:29;;;;;;;0.95;0.50;;;;;;;;;;5002900;28;20038;-81
2023/10/25 11:09:55;;;;;;;0.40;0.40;;;;;;;;;;5013930;28;20060;-80
2023/10/25 11:12:20;;;;;;;0.40;0.40;;;;;;;;;;5021009;28;20022;-82
2023/10/25 11:14:47;;;;;;;0.40;0.40;;;;;;;;;;5022422;28;20026;-80
2023/10/25 11:17:12;;;;;;;0.63;0.40;;;;;;;;;;5020273;28;20037;-81
2023/10/25 11:19:38;;;;;;;0.40;0.40;;;;;;;;;;5029348;28;20494;-81
2023/10/25 11:22:04;;;;;;;0.70;0.50;;;;;;;;;;5004871;28;20034;-81
2023/10/25 11:24:29;;;;;;;0.90;0.55;;;;;;;;;;5021571;28;20040;-81
2023/10/25 11:26:55;;;;;;;0.47;0.47;;;;;;;;;;5021877;28;20144;-82
2023/10/25 11:29:21;;;;;;;0.52;0.52;;;;;;;;;;5021919;28;20042;-80
2023/10/25 11:31:49;;;;;;;0.40;0.40;;;;;;;;;;5004314;28;20038;-81
2023/10/25 11:34:22;;;;;;;0.55;0.47;;;;;;;;;;5004211;28;20061;-81
2023/10/25 11:36:49;;;;;;;4.32;0.60;;;;;;;;;;5016832;28;20123;-82
2023/10/25 11:39:14;;;;;;;0.40;0.40;;;;;;;;;;5017963;28;20036;-79
2023/10/25 11:41:40;;;;;;;2.72;0.50;;;;;;;;;;5002062;28;20058;-80
2023/10/25 11:44:06;;;;;;;0.52;0.52;;;;;;;;;;5004057;28;20026;-79
2023/10/25 11:46:41;;;;;;;0.40;0.40;;;;;;;;;;5014811;28;20034;-81
2023/10/25 11:49:06;;;;;;;;;;;;;;;;;;5021436;28;20060;-81
2023/10/25 11:51:33;;;;;;;0.75;0.50;;;;;;;;;;5015111;28;19913;-82
2023/10/25 11:54:00;;;;;;;0.52;0.52;;;;;;;;;;5020001;28;20125;-82
2023/10/25 11:56:26;;;;;;;0.50;0.50;;;;;;;;;;5021583;28;20038;-81
2023/10/25 11:58:51;;;;;;;0.50;0.50;;;;;;;;;;5018956;28;20037;-81
2023/10/25 12:01:17;;;;;;;0.30;0.30;;;;;;;;;;5020521;28;20038;-81
2023/10/25 12:03:44;;;;;;;0.60;0.60;;;;;;;;;;5004020;28;20022;-82
2023/10/25 12:06:09;;;;;;;0.50;0.50;;;;;;;;;;5002354;28;20037;-80
2023/10/25 12:08:35;;;;;;;1.10;0.40;;;;;;;;;;5001567;28;20053;-81
2023/10/25 12:11:00;;;;;;;0.50;0.50;;;;;;;;;;5007181;28;20085;-79
2023/10/25 12:13:25;;;;;;;0.60;0.60;;;;;;;;;;5018629;28;20037;-82
2023/10/25 12:15:51;;;;;;;0.50;0.50;;;;;;;;;;5007386;28;20038;-82
2023/10/25 12:18:16;;;;;;;0.60;0.60;;;;;;;;;;5019487;28;20437;-82
2023/10/25 12:20:42;;;;;;;0.50;0.50;;;;;;;;;;5000418;28;20054;-82
2023/10/25 12:23:07;;;;;;;0.60;0.60;;;;;;;;;;5006000;28;20030;-81
2023/10/25 12:25:34;;;;;;;4.70;0.73;;;;;;;;;;5011058;28;20037;-81
2023/10/25 12:28:01;;;;;;;0.80;0.80;;;;;;;;;;5006393;28;20062;-82
2023/10/25 12:30:26;;;;;;;1.27;0.85;;;;;;;;;;5003970;28;20041;-82
2023/10/25 12:32:53;;;;;;;0.60;0.60;;;;;;;;;;5000081;28;20026;-81
2023/10/25 12:35:21;;;;;;;0.60;0.60;;;;;;;;;;5017132;28;20461;-82
2023/10/25 12:37:47;;;;;;;0.60;0.60;;;;;;;;;;5010517;28;20042;-81
2023/10/25 12:40:12;;;;;;;2.78;1.00;;;;;;;;;;5001454;28;20034;-81
2023/10/25 12:42:37;;;;;;;1.00;0.82;;;;;;;;;;5001344;28;20030;-81
2023/10/25 12:45:03;;;;;;;0.70;0.60;;;;;;;;;;5001385;28;20027;-82
2023/10/25 12:47:28;;;;;;;1.88;0.75;;;;;;;;;;5000189;28;20034;-82
2023/10/25 12:49:54;;;;;;;1.08;0.60;;;;;;;;;;5007285;28;20035;-81
2023/10/25 12:52:20;;;;;;;1.02;0.60;;;;;;;;;;5011667;28;20026;-81
2023/10/25 12:54:46;;;;;;;2.70;0.70;;;;;;;;;;5005637;28;20548;-80
2023/10/25 12:57:12;;;;;;;0.63;0.63;;;;;;;;;;5001100;28;20058;-82
2023/10/25 12:59:38;;;;;;;0.60;0.60;;;;;;;;;;5003776;28;20022;-82
2023/10/25 13:02:03;;;;;;;0.60;0.60;;;;;;;;;;5002027;28;20034;-81
2023/10/25 13:04:28;;;;;;;0.47;0.47;;;;;;;;;;5000975;28;20118;-82
2023/10/25 13:06:54;;;;;;;0.60;0.60;;;;;;;;;;5018607;28;20041;-80
2023/10/25 13:09:20;;;;;;;0.50;0.50;;;;;;;;;;5021015;28;20081;-80
2023/10/25 13:11:46;;;;;;;0.50;0.50;;;;;;;;;;5021735;28;20030;-81
2023/10/25 13:14:12;;;;;;;0.57;0.57;;;;;;;;;;5016741;28;20402;-80
2023/10/25 13:16:38;;;;;;;0.60;0.60;;;;;;;;;;5010562;28;20041;-81
2023/10/25 13:19:04;;;;;;;0.80;0.80;;;;;;;;;;5013970;28;20030;-82
2023/10/25 13:21:29;;;;;;;1.45;0.98;;;;;;;;;;5007458;28;20041;-81
2023/10/25 13:23:54;;;;;;;0.60;0.60;;;;;;;;;;5000827;28;20025;-81
2023/10/25 13:26:20;;;;;;;1.02;0.80;;;;;;;;;;5028368;28;20033;-81
2023/10/25 13:28:46;;;;;;;0.60;0.60;;;;;;;;;;5017163;28;20101;-81
2023/10/25 13:31:12;;;;;;;0.63;0.60;;;;;;;;;;5000285;28;20069;-81
2023/10/25 13:33:37;;;;;;;0.60;0.60;;;;;;;;;;5001094;28;20105;-81
2023/10/25 13:36:02;;;;;;;0.60;0.60;;;;;;;;;;5013468;28;20026;-82
2023/10/25 13:38:28;;;;;;;0.55;0.55;;;;;;;;;;5019947;28;20038;-80
2023/10/25 13:40:53;;;;;;;0.60;0.60;;;;;;;;;;5018177;28;20121;-82
2023/10/25 13:43:19;;;;;;;0.60;0.50;;;;;;;;;;5016863;28;20034;-80
2023/10/25 13:45:45;;;;;;;0.40;0.40;;;;;;;;;;5018987;28;20030;-81
2023/10/25 13:48:10;;;;;;;0.60;0.60;;;;;;;;;;5011401;28;20018;-82
2023/10/25 13:50:36;;;;;;;0.65;0.65;;;;;;;;;;5020650;28;20148;-82
2023/10/25 13:53:01;;;;;;;0.68;0.68;;;;;;;;;;5007472;28;20462;-83
2023/10/25 13:55:27;;;;;;;0.50;0.50;;;;;;;;;;5000673;28;20049;-81
2023/10/25 13:57:52;;;;;;;0.50;0.50;;;;;;;;;;5000737;28;20030;-79
2023/10/25 14:00:17;;;;;;;0.40;0.40;;;;;;;;;;5000972;28;20117;-82
2023/10/25 14:02:43;;;;;;;0.60;0.60;;;;;;;;;;5001362;28;20041;-80
2023/10/25 14:05:08;;;;;;;0.60;0.50;;;;;;;;;;5001368;28;20034;-81
2023/10/25 14:07:34;;;;;;;1.08;0.60;;;;;;;;;;5052270;23;20485;-77
2023/10/25 14:09:59;;;;;;;0.60;0.60;;;;;;;;;;5047403;28;20354;-77
2023/10/25 14:12:25;;;;;;;0.43;0.43;;;;;;;;;;5040288;28;20033;-77
2023/10/25 14:14:50;;;;;;;0.38;0.38;;;;;;;;;;5042358;28;20455;-78
2023/10/25 14:17:16;;;;;;;1.70;0.40;;;;;;;;;;5039666;28;20045;-79
2023/10/25 14:19:41;;;;;;;0.40;0.30;;;;;;;;;;5044875;28;20061;-78
2023/10/25 14:22:07;;;;;;;0.35;0.35;;;;;;;;;;5042704;28;20045;-78
2023/10/25 14:24:33;;;;;;;0.32;0.32;;;;;;;;;;5047551;28;20079;-78
2023/10/25 14:27:04;;;;;;;0.40;0.40;;;;;;;;;;5053043;28;20033;-78
2023/10/25 14:29:30;;;;;;;0.80;0.50;;;;;;;;;;5046232;28;20097;-78
2023/10/25 14:31:55;;;;;;;0.40;0.40;;;;;;;;;;5046206;28;20079;-78
2023/10/25 14:34:20;;;;;;;0.40;0.40;;;;;;;;;;5051004;28;20035;-78
2023/10/25 14:36:46;;;;;;;3.40;0.40;;;;;;;;;;5045105;28;20077;-78
2023/10/25 14:39:15;;;;;;;0.63;0.60;;;;;;;;;;5044303;28;20287;-77
2023/10/25 14:41:40;;;;;;;1.38;0.43;;;;;;;;;;5046450;28;20531;-77